| time (UTC) | temp F | wind direction | speed MPH | gust MPH | rain 1hr in | rain 24hr in | rain mn in | humidity % | barometer mb |
| 20260509222743 | 89 | 111 | 4.0 | 8.0 | 0.00 | 0.11 | 0.11 | 40 | 1008.3 |
| 20260509222239 | 90 | 224 | 2.0 | 4.0 | 0.00 | 0.11 | 0.11 | 39 | 1008.3 |
| 20260509221734 | 89 | 170 | 2.0 | 5.0 | 0.00 | 0.11 | 0.11 | 39 | 1008.3 |
| 20260509221231 | 90 | 187 | 2.0 | 4.0 | 0.00 | 0.11 | 0.11 | 39 | 1008.5 |
| 20260509220727 | 90 | 142 | 3.0 | 6.0 | 0.00 | 0.11 | 0.11 | 39 | 1008.4 |
| 20260509220223 | 89 | 178 | 1.0 | 4.0 | 0.00 | 0.11 | 0.11 | 42 | 1008.3 |
| 20260509215719 | 90 | 116 | 5.0 | 5.0 | 0.00 | 0.11 | 0.11 | 41 | 1008.4 |
| 20260509215215 | 89 | 154 | 0.0 | 3.0 | 0.00 | 0.11 | 0.11 | 39 | 1008.5 |
| 20260509214713 | 89 | 119 | 2.0 | 4.0 | 0.00 | 0.11 | 0.11 | 39 | 1008.4 |
| 20260509214210 | 89 | 78 | 3.0 | 4.0 | 0.00 | 0.11 | 0.11 | 39 | 1008.5 |
| 20260509213707 | 91 | 83 | 4.0 | 6.0 | 0.00 | 0.11 | 0.11 | 38 | 1008.5 |
| 20260509213202 | 91 | 79 | 1.0 | 3.0 | 0.00 | 0.11 | 0.11 | 37 | 1008.4 |
| 20260509212700 | 90 | 20 | 2.0 | 4.0 | 0.00 | 0.11 | 0.11 | 41 | 1008.5 |
| 20260509212157 | 90 | 127 | 1.0 | 4.0 | 0.00 | 0.11 | 0.11 | 42 | 1008.8 |
| 20260509211653 | 90 | 130 | 0.0 | 2.0 | 0.00 | 0.11 | 0.11 | 39 | 1008.7 |
| 20260509211149 | 88 | 264 | 2.0 | 3.0 | 0.00 | 0.11 | 0.11 | 39 | 1008.8 |
| 20260509210647 | 88 | 170 | 5.0 | 10.0 | 0.00 | 0.11 | 0.11 | 39 | 1008.6 |
| 20260509210144 | 88 | 80 | 2.0 | 3.0 | 0.00 | 0.11 | 0.11 | 43 | 1009.1 |
| 20260509205639 | 88 | 132 | 3.0 | 4.0 | 0.00 | 0.11 | 0.11 | 41 | 1009.0 |
| 20260509205138 | 87 | 92 | 2.0 | 6.0 | 0.00 | 0.11 | 0.11 | 41 | 1009.0 |
| 20260509204635 | 88 | 104 | 2.0 | 5.0 | 0.00 | 0.11 | 0.11 | 41 | 1009.0 |
| 20260509204131 | 88 | 89 | 4.0 | 7.0 | 0.00 | 0.11 | 0.11 | 41 | 1009.2 |
| 20260509203627 | 89 | 78 | 5.0 | 5.0 | 0.00 | 0.11 | 0.11 | 41 | 1009.1 |
| 20260509203126 | 88 | 13 | 2.0 | 5.0 | 0.00 | 0.11 | 0.11 | 43 | 1009.2 |
| 20260509202626 | 88 | 69 | 2.0 | 6.0 | 0.00 | 0.11 | 0.11 | 42 | 1009.4 |
| 20260509202121 | 89 | 51 | 2.0 | 4.0 | 0.00 | 0.11 | 0.11 | 42 | 1009.6 |
| 20260509201616 | 88 | 123 | 1.0 | 4.0 | 0.00 | 0.11 | 0.11 | 44 | 1009.4 |
| 20260509201114 | 88 | 93 | 4.0 | 6.0 | 0.00 | 0.11 | 0.11 | 42 | 1009.6 |
| 20260509200609 | 87 | 88 | 2.0 | 4.0 | 0.00 | 0.11 | 0.11 | 43 | 1009.5 |
| 20260509200105 | 87 | 115 | 5.0 | 5.0 | 0.00 | 0.11 | 0.11 | 44 | 1009.6 |
| 20260509195601 | 88 | 48 | 1.0 | 4.0 | 0.00 | 0.11 | 0.11 | 43 | 1009.7 |
| 20260509195055 | 87 | 235 | 2.0 | 3.0 | 0.00 | 0.11 | 0.11 | 46 | 1009.7 |
| 20260509194555 | 87 | 352 | 2.0 | 4.0 | 0.00 | 0.11 | 0.11 | 45 | 1009.7 |
| 20260509194053 | 87 | 62 | 2.0 | 3.0 | 0.00 | 0.11 | 0.11 | 46 | 1009.9 |
| 20260509193548 | 86 | 148 | 0.0 | 5.0 | 0.00 | 0.11 | 0.11 | 45 | 1010.0 |
| 20260509193045 | 89 | 124 | 4.0 | 6.0 | 0.00 | 0.11 | 0.11 | 43 | 1010.1 |
| 20260509192542 | 87 | 82 | 1.0 | 4.0 | 0.00 | 0.11 | 0.11 | 45 | 1010.0 |
| 20260509192036 | 86 | 110 | 2.0 | 5.0 | 0.00 | 0.11 | 0.11 | 43 | 1010.1 |
| 20260509191531 | 86 | 156 | 3.0 | 5.0 | 0.00 | 0.11 | 0.11 | 47 | 1009.9 |
| 20260509191027 | 87 | 132 | 5.0 | 8.0 | 0.00 | 0.11 | 0.11 | 45 | 1010.2 |
| 20260509190524 | 87 | 128 | 1.0 | 3.0 | 0.00 | 0.11 | 0.11 | 45 | 1010.1 |
| 20260509190022 | 87 | 195 | 0.0 | 4.0 | 0.00 | 0.11 | 0.11 | 45 | 1010.3 |
| 20260509185519 | 87 | 204 | 0.0 | 2.0 | 0.00 | 0.11 | 0.11 | 44 | 1010.2 |
| 20260509185015 | 87 | 114 | 2.0 | 4.0 | 0.00 | 0.11 | 0.11 | 42 | 1010.2 |
| 20260509184514 | 86 | 162 | 0.0 | 2.0 | 0.00 | 0.11 | 0.11 | 49 | 1010.2 |
| 20260509184010 | 86 | 329 | 2.0 | 5.0 | 0.00 | 0.11 | 0.11 | 46 | 1010.4 |
| 20260509183505 | 86 | 99 | 2.0 | 5.0 | 0.00 | 0.11 | 0.11 | 44 | 1010.4 |
| 20260509183001 | 86 | 21 | 1.0 | 4.0 | 0.00 | 0.11 | 0.11 | 49 | 1010.6 |
| 20260509182458 | 85 | 57 | 2.0 | 5.0 | 0.00 | 0.11 | 0.11 | 51 | 1010.5 |
| 20260509181954 | 85 | 336 | 2.0 | 3.0 | 0.00 | 0.11 | 0.11 | 46 | 1010.7 |
| 20260509181453 | 84 | 249 | 4.0 | 6.0 | 0.00 | 0.11 | 0.11 | 48 | 1010.7 |
| 20260509180950 | 84 | 103 | 2.0 | 3.0 | 0.00 | 0.11 | 0.11 | 50 | 1010.9 |
| 20260509180445 | 85 | 257 | 4.0 | 7.0 | 0.00 | 0.11 | 0.11 | 50 | 1010.8 |
| 20260509175943 | 84 | 51 | 0.0 | 4.0 | 0.00 | 0.11 | 0.11 | 51 | 1010.9 |
| 20260509175439 | 84 | 343 | 4.0 | 4.0 | 0.00 | 0.11 | 0.11 | 49 | 1010.9 |
| 20260509174936 | 83 | 286 | 4.0 | 4.0 | 0.00 | 0.11 | 0.11 | 52 | 1010.8 |
| 20260509174432 | 83 | 286 | 4.0 | 6.0 | 0.00 | 0.11 | 0.11 | 52 | 1011.0 |
| 20260509173927 | 83 | 346 | 5.0 | 8.0 | 0.00 | 0.11 | 0.11 | 52 | 1011.0 |
| 20260509173427 | 83 | 289 | 1.0 | 3.0 | 0.00 | 0.11 | 0.11 | 53 | 1011.0 |
| 20260509172924 | 82 | 328 | 2.0 | 6.0 | 0.00 | 0.11 | 0.11 | 54 | 1011.1 |
| 20260509172421 | 82 | 322 | 4.0 | 5.0 | 0.00 | 0.11 | 0.11 | 53 | 1011.1 |
| 20260509171916 | 82 | 322 | 3.0 | 5.0 | 0.00 | 0.11 | 0.11 | 52 | 1011.3 |
| 20260509171413 | 82 | 305 | 3.0 | 6.0 | 0.00 | 0.11 | 0.11 | 52 | 1011.3 |
| 20260509170909 | 81 | 299 | 0.0 | 3.0 | 0.00 | 0.11 | 0.11 | 56 | 1011.3 |
| 20260509170404 | 82 | 269 | 4.0 | 5.0 | 0.00 | 0.11 | 0.11 | 56 | 1011.3 |
| 20260509165901 | 81 | 305 | 5.0 | 6.0 | 0.00 | 0.11 | 0.11 | 54 | 1011.3 |
| 20260509165355 | 81 | 350 | 2.0 | 6.0 | 0.00 | 0.11 | 0.11 | 55 | 1011.4 |
| 20260509164851 | 81 | 307 | 2.0 | 6.0 | 0.00 | 0.11 | 0.11 | 54 | 1011.3 |
| 20260509164347 | 81 | 294 | 4.0 | 6.0 | 0.00 | 0.11 | 0.11 | 56 | 1011.5 |
| 20260509163843 | 80 | 348 | 1.0 | 4.0 | 0.00 | 0.11 | 0.11 | 58 | 1011.5 |
| 20260509163340 | 79 | 340 | 3.0 | 6.0 | 0.00 | 0.11 | 0.11 | 57 | 1011.5 |
| 20260509162839 | 79 | 275 | 5.0 | 10.0 | 0.00 | 0.11 | 0.11 | 58 | 1011.6 |
| 20260509162338 | 79 | 287 | 7.0 | 10.0 | 0.00 | 0.11 | 0.11 | 57 | 1011.7 |
| 20260509161834 | 78 | 293 | 5.0 | 9.0 | 0.00 | 0.11 | 0.11 | 60 | 1011.7 |
| 20260509161331 | 78 | 269 | 2.0 | 7.0 | 0.00 | 0.11 | 0.11 | 59 | 1011.3 |
| 20260509160826 | 78 | 273 | 2.0 | 6.0 | 0.00 | 0.11 | 0.11 | 59 | 1011.6 |
| 20260509160322 | 78 | 256 | 5.0 | 10.0 | 0.00 | 0.11 | 0.11 | 62 | 1011.5 |
| 20260509155818 | 78 | 252 | 6.0 | 8.0 | 0.00 | 0.11 | 0.11 | 63 | 1011.6 |
| 20260509155315 | 77 | 329 | 3.0 | 9.0 | 0.00 | 0.11 | 0.11 | 63 | 1011.5 |
| 20260509154811 | 77 | 341 | 4.0 | 6.0 | 0.00 | 0.11 | 0.11 | 62 | 1011.4 |
| 20260509154308 | 77 | 308 | 3.0 | 8.0 | 0.00 | 0.11 | 0.11 | 62 | 1011.5 |
| 20260509153804 | 76 | 304 | 2.0 | 7.0 | 0.00 | 0.11 | 0.11 | 64 | 1011.5 |
| 20260509153301 | 75 | 355 | 5.0 | 7.0 | 0.00 | 0.11 | 0.11 | 62 | 1011.3 |
| 20260509152758 | 75 | 292 | 5.0 | 7.0 | 0.00 | 0.11 | 0.11 | 61 | 1011.3 |
| 20260509152253 | 75 | 280 | 5.0 | 6.0 | 0.00 | 0.11 | 0.11 | 64 | 1011.5 |
| 20260509151751 | 75 | 331 | 2.0 | 6.0 | 0.00 | 0.11 | 0.11 | 64 | 1011.6 |
| 20260509151247 | 74 | 230 | 5.0 | 6.0 | 0.00 | 0.11 | 0.11 | 64 | 1011.6 |
| 20260509150746 | 74 | 330 | 4.0 | 5.0 | 0.00 | 0.11 | 0.11 | 65 | 1011.6 |
| 20260509150244 | 74 | 328 | 2.0 | 5.0 | 0.00 | 0.11 | 0.11 | 66 | 1011.6 |
| 20260509145740 | 74 | 274 | 3.0 | 6.0 | 0.00 | 0.11 | 0.11 | 67 | 1011.5 |
| 20260509145240 | 73 | 18 | 3.0 | 5.0 | 0.00 | 0.11 | 0.11 | 69 | 1011.5 |
| 20260509144737 | 73 | 341 | 2.0 | 4.0 | 0.00 | 0.11 | 0.11 | 70 | 1011.7 |
| 20260509144234 | 74 | 298 | 4.0 | 7.0 | 0.00 | 0.11 | 0.11 | 68 | 1011.6 |
| 20260509143731 | 74 | 7 | 1.0 | 4.0 | 0.00 | 0.11 | 0.11 | 68 | 1011.6 |
| 20260509143228 | 74 | 345 | 3.0 | 5.0 | 0.00 | 0.11 | 0.11 | 72 | 1011.6 |
| 20260509142724 | 72 | 312 | 3.0 | 4.0 | 0.00 | 0.11 | 0.11 | 76 | 1011.7 |
| 20260509142221 | 72 | 343 | 5.0 | 6.0 | 0.00 | 0.11 | 0.11 | 78 | 1011.5 |
| 20260509141716 | 72 | 341 | 4.0 | 4.0 | 0.00 | 0.11 | 0.11 | 78 | 1011.7 |
| 20260509141214 | 72 | 29 | 5.0 | 5.0 | 0.00 | 0.11 | 0.11 | 79 | 1011.6 |
| 20260509140710 | 72 | 13 | 2.0 | 5.0 | 0.00 | 0.11 | 0.11 | 78 | 1011.8 |
| 20260509140208 | 71 | 92 | 2.0 | 4.0 | 0.00 | 0.11 | 0.11 | 80 | 1011.7 |
| 20260509135705 | 71 | 7 | 4.0 | 6.0 | 0.00 | 0.11 | 0.11 | 80 | 1011.7 |
| 20260509135203 | 71 | 98 | 2.0 | 4.0 | 0.00 | 0.11 | 0.11 | 80 | 1011.7 |
| 20260509134659 | 72 | 53 | 2.0 | 4.0 | 0.00 | 0.11 | 0.11 | 78 | 1011.7 |
| 20260509134157 | 70 | 35 | 2.0 | 4.0 | 0.00 | 0.11 | 0.11 | 79 | 1011.9 |
| 20260509133654 | 69 | 92 | 2.0 | 3.0 | 0.00 | 0.11 | 0.11 | 82 | 1011.9 |
| 20260509133151 | 69 | 98 | 3.0 | 4.0 | 0.00 | 0.11 | 0.11 | 81 | 1011.9 |
| 20260509132649 | 69 | 64 | 1.0 | 3.0 | 0.00 | 0.11 | 0.11 | 79 | 1011.8 |
| 20260509132147 | 69 | 75 | 1.0 | 3.0 | 0.00 | 0.11 | 0.11 | 80 | 1011.8 |
| 20260509131643 | 69 | 79 | 2.0 | 3.0 | 0.00 | 0.11 | 0.11 | 80 | 1011.8 |
| 20260509131140 | 68 | 49 | 2.0 | 2.0 | 0.00 | 0.11 | 0.11 | 82 | 1011.7 |
| 20260509130636 | 67 | 50 | 2.0 | 3.0 | 0.00 | 0.11 | 0.11 | 83 | 1011.8 |
| 20260509130132 | 67 | 98 | 1.0 | 3.0 | 0.00 | 0.11 | 0.11 | 83 | 1011.8 |
| 20260509125629 | 66 | 38 | 4.0 | 5.0 | 0.00 | 0.11 | 0.11 | 82 | 1011.7 |
| 20260509125126 | 65 | 59 | 0.0 | 2.0 | 0.00 | 0.11 | 0.11 | 86 | 1011.6 |
| 20260509124622 | 64 | 31 | 0.0 | 2.0 | 0.00 | 0.11 | 0.11 | 87 | 1011.5 |
| 20260509124119 | 64 | 57 | 2.0 | 2.0 | 0.00 | 0.11 | 0.11 | 87 | 1011.7 |
| 20260509123617 | 63 | 125 | 2.0 | 2.0 | 0.00 | 0.11 | 0.11 | 89 | 1011.9 |
| 20260509123114 | 63 | 118 | 0.0 | 2.0 | 0.00 | 0.11 | 0.11 | 89 | 1011.7 |
| 20260509122610 | 62 | 95 | 1.0 | 2.0 | 0.00 | 0.11 | 0.11 | 89 | 1011.6 |
| 20260509122107 | 62 | 147 | 1.0 | 2.0 | 0.00 | 0.11 | 0.11 | 89 | 1011.7 |
| 20260509121603 | 62 | 203 | 0.0 | 0.0 | 0.00 | 0.11 | 0.11 | 87 | 1011.4 |
| 20260509121101 | 63 | 137 | 0.0 | 2.0 | 0.00 | 0.11 | 0.11 | 86 | 1011.4 |
| 20260509120559 | 63 | 153 | 3.0 | 4.0 | 0.00 | 0.11 | 0.11 | 87 | 1011.1 |
| 20260509120057 | 63 | 150 | 3.0 | 3.0 | 0.00 | 0.11 | 0.11 | 87 | 1011.0 |
| 20260509115554 | 63 | 162 | 2.0 | 3.0 | 0.00 | 0.11 | 0.11 | 88 | 1010.8 |
| 20260509115052 | 63 | 143 | 0.0 | 2.0 | 0.00 | 0.11 | 0.11 | 87 | 1011.0 |
| 20260509114550 | 63 | 186 | 2.0 | 2.0 | 0.00 | 0.11 | 0.11 | 87 | 1010.8 |
| 20260509114048 | 63 | 191 | 0.0 | 1.0 | 0.00 | 0.11 | 0.11 | 87 | 1010.7 |
| 20260509113546 | 63 | 199 | 0.0 | 2.0 | 0.00 | 0.11 | 0.11 | 87 | 1010.4 |
| 20260509113044 | 63 | 177 | 2.0 | 2.0 | 0.00 | 0.11 | 0.11 | 86 | 1010.3 |
| 20260509112540 | 63 | 230 | 0.0 | 2.0 | 0.00 | 0.11 | 0.11 | 86 | 1010.2 |
| 20260509112037 | 63 | 150 | 0.0 | 2.0 | 0.00 | 0.11 | 0.11 | 85 | 1010.0 |
| 20260509111534 | 63 | 6 | 2.0 | 2.0 | 0.00 | 0.11 | 0.11 | 85 | 1010.0 |
| 20260509111031 | 63 | 10 | 1.0 | 3.0 | 0.00 | 0.11 | 0.11 | 85 | 1009.8 |
| 20260509110527 | 63 | 240 | 0.0 | 2.0 | 0.00 | 0.11 | 0.11 | 84 | 1010.0 |
| 20260509110025 | 64 | 20 | 3.0 | 5.0 | 0.00 | 0.11 | 0.11 | 84 | 1009.7 |
| 20260509105523 | 63 | 40 | 2.0 | 3.0 | 0.00 | 0.11 | 0.11 | 86 | 1009.8 |
| 20260509105020 | 62 | 67 | 2.0 | 3.0 | 0.00 | 0.11 | 0.11 | 88 | 1009.8 |
| 20260509104517 | 63 | 166 | 2.0 | 2.0 | 0.00 | 0.11 | 0.11 | 86 | 1009.9 |
| 20260509104014 | 64 | 122 | 2.0 | 2.0 | 0.00 | 0.11 | 0.11 | 84 | 1009.8 |
| 20260509103512 | 63 | 92 | 4.0 | 4.0 | 0.00 | 0.11 | 0.11 | 85 | 1009.8 |
| 20260509103010 | 63 | 91 | 3.0 | 4.0 | 0.00 | 0.11 | 0.11 | 87 | 1010.0 |
| 20260509102507 | 63 | 35 | 0.0 | 1.0 | 0.00 | 0.11 | 0.11 | 85 | 1010.2 |
| 20260509102003 | 63 | 89 | 3.0 | 5.0 | 0.00 | 0.11 | 0.11 | 85 | 1010.1 |
| 20260509101500 | 63 | 95 | 4.0 | 5.0 | 0.00 | 0.11 | 0.11 | 87 | 1010.0 |
| 20260509100957 | 63 | 214 | 0.0 | 2.0 | 0.00 | 0.11 | 0.11 | 87 | 1010.3 |
| 20260509100454 | 63 | 110 | 1.0 | 2.0 | 0.00 | 0.11 | 0.11 | 87 | 1010.3 |
| 20260509095951 | 63 | 102 | 3.0 | 6.0 | 0.00 | 0.11 | 0.11 | 86 | 1010.4 |
| 20260509095448 | 63 | 93 | 2.0 | 4.0 | 0.00 | 0.11 | 0.11 | 86 | 1010.3 |
| 20260509094945 | 63 | 92 | 3.0 | 5.0 | 0.00 | 0.11 | 0.11 | 85 | 1010.4 |
| 20260509094441 | 64 | 92 | 2.0 | 2.0 | 0.00 | 0.11 | 0.11 | 84 | 1010.4 |
| 20260509093939 | 64 | 60 | 2.0 | 2.0 | 0.00 | 0.11 | 0.11 | 84 | 1010.4 |
| 20260509093436 | 64 | 310 | 1.0 | 6.0 | 0.00 | 0.11 | 0.11 | 83 | 1010.3 |
| 20260509092934 | 64 | 301 | 4.0 | 8.0 | 0.00 | 0.11 | 0.11 | 83 | 1010.5 |
| 20260509092432 | 65 | 254 | 5.0 | 9.0 | 0.00 | 0.11 | 0.11 | 82 | 1009.8 |
| 20260509091931 | 65 | 256 | 11.0 | 16.0 | 0.00 | 0.11 | 0.11 | 80 | 1010.1 |
| 20260509091427 | 65 | 268 | 5.0 | 13.0 | 0.00 | 0.11 | 0.11 | 81 | 1009.6 |
| 20260509090924 | 65 | 19 | 2.0 | 11.0 | 0.00 | 0.11 | 0.11 | 79 | 1009.3 |
| 20260509090421 | 64 | 337 | 4.0 | 11.0 | 0.00 | 0.11 | 0.11 | 81 | 1007.9 |
| 20260509085919 | 64 | 191 | 4.0 | 11.0 | 0.00 | 0.11 | 0.11 | 82 | 1006.7 |
| 20260509085416 | 64 | 197 | 3.0 | 6.0 | 0.00 | 0.11 | 0.11 | 80 | 1006.1 |
| 20260509084912 | 64 | 156 | 4.0 | 8.0 | 0.00 | 0.11 | 0.11 | 78 | 1006.0 |
| 20260509084409 | 64 | 136 | 4.0 | 10.0 | 0.00 | 0.11 | 0.11 | 78 | 1006.2 |
| 20260509083906 | 64 | 157 | 4.0 | 9.0 | 0.00 | 0.11 | 0.11 | 78 | 1006.7 |
| 20260509083403 | 64 | 154 | 6.0 | 8.0 | 0.00 | 0.11 | 0.11 | 78 | 1006.5 |
| 20260509082900 | 64 | 119 | 1.0 | 5.0 | 0.00 | 0.11 | 0.11 | 76 | 1007.0 |
| 20260509082357 | 65 | 204 | 3.0 | 7.0 | 0.00 | 0.11 | 0.11 | 76 | 1007.8 |
| 20260509081854 | 66 | 77 | 2.0 | 4.0 | 0.00 | 0.11 | 0.11 | 73 | 1008.6 |
| 20260509081351 | 67 | 130 | 4.0 | 6.0 | 0.00 | 0.11 | 0.11 | 71 | 1008.6 |
| 20260509080849 | 69 | 260 | 3.0 | 10.0 | 0.00 | 0.11 | 0.11 | 66 | 1009.0 |
| 20260509080347 | 68 | 303 | 6.0 | 7.0 | 0.00 | 0.11 | 0.11 | 62 | 1008.9 |
| 20260509075844 | 66 | 355 | 1.0 | 3.0 | 0.00 | 0.11 | 0.11 | 76 | 1008.9 |
| 20260509075341 | 67 | 265 | 6.0 | 6.0 | 0.00 | 0.11 | 0.11 | 75 | 1008.8 |
| 20260509074838 | 66 | 93 | 2.0 | 3.0 | 0.00 | 0.11 | 0.11 | 73 | 1008.9 |
| 20260509074336 | 65 | 108 | 4.0 | 4.0 | 0.00 | 0.11 | 0.11 | 78 | 1008.7 |
| 20260509073832 | 67 | 275 | 4.0 | 6.0 | 0.00 | 0.11 | 0.11 | 79 | 1009.1 |
| 20260509073329 | 64 | 108 | 0.0 | 4.0 | 0.00 | 0.11 | 0.11 | 88 | 1009.3 |
| 20260509072825 | 65 | 214 | 2.0 | 2.0 | 0.00 | 0.11 | 0.11 | 83 | 1009.3 |
| 20260509072322 | 66 | 106 | 4.0 | 7.0 | 0.00 | 0.11 | 0.11 | 79 | 1009.6 |
| 20260509071819 | 65 | 99 | 3.0 | 5.0 | 0.00 | 0.11 | 0.11 | 81 | 1009.7 |
| 20260509071316 | 68 | 267 | 3.0 | 3.0 | 0.00 | 0.11 | 0.11 | 74 | 1010.2 |
| 20260509070813 | 69 | 123 | 6.0 | 8.0 | 0.00 | 0.11 | 0.11 | 65 | 1010.5 |
| 20260509070309 | 66 | 115 | 4.0 | 5.0 | 0.00 | 0.11 | 0.11 | 74 | 1010.8 |
| 20260509065806 | 64 | 128 | 2.0 | 3.0 | 0.02 | 0.11 | 0.11 | 80 | 1011.7 |
| 20260509065305 | 64 | 83 | 1.0 | 3.0 | 0.07 | 0.11 | 0.11 | 81 | 1012.0 |
| 20260509064758 | 63 | 112 | 1.0 | 2.0 | 0.17 | 0.11 | 0.11 | 84 | 1012.2 |
| 20260509064256 | 63 | 234 | 1.0 | 4.0 | 0.17 | 0.09 | 0.09 | 85 | 1012.4 |
| 20260509063753 | 63 | 105 | 2.0 | 3.0 | 0.17 | 0.08 | 0.08 | 85 | 1012.8 |
| 20260509063249 | 64 | 298 | 4.0 | 9.0 | 0.40 | 0.07 | 0.07 | 82 | 1013.3 |
| 20260509062747 | 66 | 322 | 8.0 | 14.0 | 0.26 | 0.04 | 0.04 | 79 | 1013.4 |
| 20260509062244 | 69 | 328 | 12.0 | 18.0 | 0.00 | 0.00 | 0.00 | 81 | 1013.3 |
| 20260509061740 | 69 | 317 | 7.0 | 13.0 | 0.00 | 0.00 | 0.00 | 87 | 1013.3 |
| 20260509061239 | 68 | 292 | 7.0 | 13.0 | 0.00 | 0.00 | 0.00 | 92 | 1013.2 |
| 20260509060736 | 68 | 314 | 3.0 | 6.0 | 0.00 | 0.00 | 0.00 | 94 | 1013.1 |
| 20260509060232 | 68 | 357 | 2.0 | 5.0 | 0.00 | 0.00 | 0.00 | 94 | 1012.9 |
| 20260509055727 | 68 | 340 | 2.0 | 4.0 | 0.00 | 0.00 | 0.00 | 94 | 1012.5 |
| 20260509055224 | 68 | 340 | 4.0 | 4.0 | 0.00 | 0.00 | 0.00 | 94 | 1012.3 |
| 20260509054720 | 68 | 243 | 0.0 | 4.0 | 0.00 | 0.00 | 0.00 | 94 | 1012.0 |
| 20260509054218 | 68 | 75 | 2.0 | 2.0 | 0.00 | 0.00 | 0.00 | 94 | 1012.0 |
| 20260509053716 | 68 | 47 | 3.0 | 4.0 | 0.00 | 0.00 | 0.00 | 95 | 1012.4 |
| 20260509053212 | 68 | 42 | 4.0 | 8.0 | 0.00 | 0.00 | 0.00 | 95 | 1012.4 |
| 20260509052710 | 67 | 47 | 2.0 | 4.0 | 0.00 | 0.00 | 0.00 | 95 | 1012.1 |
| 20260509052208 | 67 | 38 | 4.0 | 6.0 | 0.00 | 0.00 | 0.00 | 94 | 1012.1 |
| 20260509051705 | 67 | 60 | 4.0 | 4.0 | 0.00 | 0.00 | 0.00 | 94 | 1011.7 |
| 20260509051203 | 67 | 52 | 3.0 | 5.0 | 0.00 | 0.00 | 0.00 | 94 | 1011.8 |
| 20260509050700 | 67 | 72 | 2.0 | 6.0 | 0.00 | 0.00 | 0.00 | 94 | 1011.7 |
| 20260509050156 | 67 | 76 | 2.0 | 2.0 | 0.00 | 0.00 | 0.00 | 94 | 1011.1 |
| 20260509045654 | 68 | 120 | 4.0 | 5.0 | 0.00 | 0.11 | 0.11 | 94 | 1010.8 |
| 20260509045150 | 67 | 138 | 4.0 | 5.0 | 0.00 | 0.11 | 0.11 | 93 | 1010.7 |
| 20260509044647 | 68 | 137 | 3.0 | 4.0 | 0.00 | 0.11 | 0.11 | 93 | 1010.6 |
| 20260509044145 | 68 | 113 | 4.0 | 4.0 | 0.00 | 0.11 | 0.11 | 93 | 1010.4 |
| 20260509043641 | 68 | 119 | 3.0 | 4.0 | 0.00 | 0.11 | 0.11 | 92 | 1010.8 |
| 20260509043137 | 68 | 101 | 3.0 | 4.0 | 0.00 | 0.11 | 0.11 | 92 | 1010.7 |
| 20260509042634 | 68 | 96 | 3.0 | 4.0 | 0.00 | 0.11 | 0.11 | 92 | 1010.7 |
| 20260509042129 | 68 | 124 | 2.0 | 5.0 | 0.00 | 0.11 | 0.11 | 92 | 1010.7 |
| 20260509041626 | 68 | 115 | 5.0 | 6.0 | 0.00 | 0.11 | 0.11 | 91 | 1010.2 |
| 20260509041124 | 69 | 105 | 3.0 | 5.0 | 0.00 | 0.11 | 0.11 | 90 | 1010.4 |
| 20260509040622 | 69 | 83 | 5.0 | 7.0 | 0.00 | 0.11 | 0.11 | 90 | 1010.7 |
| 20260509040119 | 69 | 107 | 2.0 | 5.0 | 0.00 | 0.11 | 0.11 | 90 | 1010.2 |
| 20260509035615 | 69 | 134 | 6.0 | 6.0 | 0.00 | 0.11 | 0.11 | 90 | 1010.3 |
| 20260509035112 | 69 | 116 | 5.0 | 7.0 | 0.00 | 0.11 | 0.11 | 89 | 1009.9 |
| 20260509034610 | 69 | 142 | 4.0 | 6.0 | 0.00 | 0.11 | 0.11 | 89 | 1009.8 |
| 20260509034107 | 69 | 148 | 2.0 | 5.0 | 0.00 | 0.11 | 0.11 | 89 | 1009.6 |
| 20260509033604 | 69 | 123 | 4.0 | 6.0 | 0.00 | 0.11 | 0.11 | 89 | 1009.7 |
| 20260509033101 | 69 | 122 | 4.0 | 7.0 | 0.00 | 0.11 | 0.11 | 88 | 1009.7 |
| 20260509032558 | 70 | 151 | 4.0 | 8.0 | 0.00 | 0.11 | 0.11 | 88 | 1009.5 |
| 20260509032055 | 70 | 133 | 3.0 | 6.0 | 0.00 | 0.11 | 0.11 | 88 | 1009.6 |
| 20260509031553 | 70 | 120 | 2.0 | 6.0 | 0.00 | 0.11 | 0.11 | 88 | 1009.5 |
| 20260509031050 | 70 | 106 | 4.0 | 7.0 | 0.00 | 0.11 | 0.11 | 87 | 1009.3 |
| 20260509030548 | 70 | 129 | 6.0 | 11.0 | 0.00 | 0.11 | 0.11 | 87 | 1009.2 |
| 20260509030045 | 70 | 169 | 3.0 | 6.0 | 0.00 | 0.11 | 0.11 | 87 | 1008.9 |
| 20260509025541 | 70 | 159 | 3.0 | 9.0 | 0.00 | 0.11 | 0.11 | 87 | 1008.9 |
| 20260509025036 | 70 | 123 | 6.0 | 9.0 | 0.00 | 0.11 | 0.11 | 87 | 1008.7 |
| 20260509024532 | 70 | 132 | 8.0 | 9.0 | 0.00 | 0.11 | 0.11 | 87 | 1008.6 |
| 20260509024029 | 70 | 101 | 4.0 | 6.0 | 0.00 | 0.11 | 0.11 | 86 | 1008.3 |
| 20260509023527 | 70 | 139 | 4.0 | 10.0 | 0.00 | 0.11 | 0.11 | 86 | 1008.4 |
| 20260509023023 | 70 | 132 | 3.0 | 8.0 | 0.00 | 0.11 | 0.11 | 86 | 1008.6 |
| 20260509022520 | 70 | 120 | 9.0 | 9.0 | 0.00 | 0.11 | 0.11 | 86 | 1008.6 |
| 20260509022018 | 70 | 106 | 2.0 | 6.0 | 0.00 | 0.11 | 0.11 | 86 | 1008.3 |
| 20260509021514 | 70 | 150 | 5.0 | 8.0 | 0.00 | 0.11 | 0.11 | 86 | 1008.5 |
| 20260509021011 | 70 | 131 | 6.0 | 8.0 | 0.00 | 0.11 | 0.11 | 86 | 1008.3 |
| 20260509020510 | 70 | 116 | 3.0 | 6.0 | 0.00 | 0.11 | 0.11 | 86 | 1008.4 |
| 20260509020006 | 70 | 110 | 3.0 | 6.0 | 0.00 | 0.11 | 0.11 | 85 | 1008.6 |
| 20260509015505 | 70 | 136 | 7.0 | 9.0 | 0.00 | 0.11 | 0.11 | 85 | 1008.4 |
| 20260509015002 | 70 | 134 | 4.0 | 6.0 | 0.00 | 0.11 | 0.11 | 85 | 1008.6 |
| 20260509014459 | 70 | 145 | 5.0 | 7.0 | 0.00 | 0.11 | 0.11 | 84 | 1008.5 |
| 20260509013954 | 70 | 118 | 4.0 | 6.0 | 0.00 | 0.11 | 0.11 | 84 | 1008.5 |
| 20260509013452 | 70 | 139 | 5.0 | 6.0 | 0.00 | 0.11 | 0.11 | 83 | 1008.5 |
| 20260509012947 | 71 | 114 | 4.0 | 6.0 | 0.00 | 0.11 | 0.11 | 83 | 1008.6 |
| 20260509012444 | 71 | 128 | 5.0 | 6.0 | 0.00 | 0.11 | 0.11 | 82 | 1008.5 |
| 20260509011941 | 71 | 129 | 5.0 | 6.0 | 0.00 | 0.11 | 0.11 | 82 | 1008.5 |
| 20260509011439 | 71 | 149 | 2.0 | 7.0 | 0.00 | 0.11 | 0.11 | 81 | 1008.6 |
| 20260509010936 | 71 | 114 | 4.0 | 6.0 | 0.00 | 0.11 | 0.11 | 81 | 1008.4 |
| 20260509010434 | 72 | 121 | 6.0 | 6.0 | 0.00 | 0.11 | 0.11 | 80 | 1008.5 |
| 20260509005931 | 72 | 131 | 4.0 | 6.0 | 0.00 | 0.11 | 0.11 | 80 | 1008.3 |
| 20260509005429 | 72 | 133 | 6.0 | 6.0 | 0.00 | 0.11 | 0.11 | 79 | 1008.3 |
| 20260509004928 | 72 | 141 | 4.0 | 10.0 | 0.00 | 0.11 | 0.11 | 79 | 1008.1 |
| 20260509004425 | 72 | 114 | 6.0 | 7.0 | 0.00 | 0.11 | 0.11 | 78 | 1008.3 |
| 20260509003923 | 72 | 117 | 4.0 | 6.0 | 0.00 | 0.11 | 0.11 | 78 | 1008.0 |
| 20260509003421 | 72 | 127 | 5.0 | 6.0 | 0.00 | 0.11 | 0.11 | 78 | 1007.9 |
| 20260509002917 | 73 | 85 | 3.0 | 6.0 | 0.00 | 0.11 | 0.11 | 77 | 1007.9 |
| 20260509002416 | 73 | 168 | 3.0 | 8.0 | 0.00 | 0.11 | 0.11 | 77 | 1007.9 |
| 20260509001912 | 73 | 136 | 4.0 | 6.0 | 0.00 | 0.11 | 0.11 | 77 | 1008.1 |
| 20260509001408 | 73 | 127 | 4.0 | 9.0 | 0.00 | 0.11 | 0.11 | 76 | 1008.3 |
| 20260509000906 | 73 | 154 | 4.0 | 7.0 | 0.00 | 0.11 | 0.11 | 76 | 1008.1 |
| 20260509000404 | 73 | 160 | 6.0 | 9.0 | 0.00 | 0.11 | 0.11 | 75 | 1008.5 |
| 20260508235859 | 74 | 199 | 2.0 | 6.0 | 0.00 | 0.11 | 0.11 | 75 | 1008.5 |
| 20260508235357 | 74 | 97 | 4.0 | 9.0 | 0.00 | 0.11 | 0.11 | 74 | 1008.6 |
| 20260508234854 | 74 | 159 | 2.0 | 4.0 | 0.00 | 0.11 | 0.11 | 74 | 1008.5 |
| 20260508234350 | 75 | 166 | 2.0 | 9.0 | 0.00 | 0.11 | 0.11 | 73 | 1008.6 |
| 20260508233849 | 75 | 171 | 0.0 | 5.0 | 0.00 | 0.11 | 0.11 | 72 | 1008.6 |
| 20260508233348 | 75 | 204 | 2.0 | 6.0 | 0.00 | 0.11 | 0.11 | 72 | 1008.8 |
| 20260508232844 | 75 | 112 | 4.0 | 8.0 | 0.00 | 0.11 | 0.11 | 72 | 1008.8 |
| 20260508232340 | 76 | 124 | 4.0 | 11.0 | 0.00 | 0.11 | 0.11 | 70 | 1008.8 |
| 20260508231839 | 76 | 110 | 5.0 | 9.0 | 0.00 | 0.11 | 0.11 | 70 | 1008.8 |
| 20260508231335 | 76 | 55 | 2.0 | 6.0 | 0.00 | 0.11 | 0.11 | 71 | 1008.8 |
| 20260508230832 | 76 | 106 | 3.0 | 4.0 | 0.00 | 0.11 | 0.11 | 72 | 1008.8 |
| 20260508230328 | 76 | 130 | 12.0 | 13.0 | 0.00 | 0.11 | 0.11 | 70 | 1008.8 |
| 20260508225826 | 75 | 225 | 8.0 | 9.0 | 0.00 | 0.11 | 0.11 | 70 | 1008.7 |
| 20260508225322 | 75 | 262 | 3.0 | 6.0 | 0.00 | 0.11 | 0.11 | 71 | 1008.7 |
| 20260508224821 | 75 | 206 | 5.0 | 10.0 | 0.00 | 0.11 | 0.11 | 70 | 1008.6 |
| 20260508224317 | 74 | 155 | 8.0 | 9.0 | 0.00 | 0.11 | 0.11 | 72 | 1008.8 |
| 20260508223815 | 74 | 118 | 3.0 | 9.0 | 0.00 | 0.11 | 0.11 | 73 | 1008.7 |
| 20260508223312 | 75 | 121 | 3.0 | 10.0 | 0.00 | 0.11 | 0.11 | 70 | 1008.9 |
| 20260508222810 | 76 | 157 | 6.0 | 10.0 | 0.00 | 0.11 | 0.11 | 68 | 1008.8 |